createdAt,value
2017-10-15T00:00:43.793Z,11.80
2017-10-15T00:03:12.561Z,12.27
2017-10-15T00:05:42.571Z,11.93
2017-10-15T00:08:10.630Z,10.73
2017-10-15T00:10:39.050Z,9.97
2017-10-15T00:13:06.727Z,11.60
2017-10-15T00:15:34.370Z,11.73
2017-10-15T00:18:01.992Z,11.80
2017-10-15T00:20:30.909Z,10.80
2017-10-15T00:22:59.030Z,11.40
2017-10-15T00:25:27.161Z,12.30
2017-10-15T00:27:55.303Z,12.13
2017-10-15T00:30:24.706Z,11.17
2017-10-15T00:32:53.596Z,11.00
2017-10-15T00:35:22.672Z,10.80
2017-10-15T00:37:51.768Z,11.87
2017-10-15T00:40:21.372Z,11.10
2017-10-15T00:42:51.153Z,10.70
2017-10-15T00:45:19.991Z,10.70
2017-10-15T00:47:49.810Z,11.10
2017-10-15T00:50:19.201Z,10.37
2017-10-15T00:52:48.291Z,10.90
2017-10-15T00:55:17.546Z,11.40
2017-10-15T00:57:46.975Z,9.27
2017-10-15T01:00:15.096Z,10.40
2017-10-15T01:02:43.998Z,10.40
2017-10-15T01:05:12.130Z,9.60
2017-10-15T01:07:40.317Z,10.17
2017-10-15T01:10:09.238Z,10.10
2017-10-15T01:12:37.385Z,10.50
2017-10-15T01:15:06.298Z,9.27
2017-10-15T01:17:34.434Z,9.90
2017-10-15T01:20:04.246Z,10.80
2017-10-15T01:22:32.412Z,9.57
2017-10-15T01:25:00.530Z,8.60
2017-10-15T01:27:28.677Z,10.43
2017-10-15T01:29:56.784Z,9.87
2017-10-15T01:32:24.917Z,8.97
2017-10-15T01:34:53.046Z,10.03
2017-10-15T01:37:21.223Z,12.13
2017-10-15T01:39:49.374Z,10.50
2017-10-15T01:42:17.520Z,10.27
2017-10-15T01:44:46.414Z,10.10
2017-10-15T01:47:15.322Z,8.77
2017-10-15T01:49:44.583Z,8.63
2017-10-15T01:52:12.807Z,8.97
2017-10-15T01:54:40.916Z,8.47
2017-10-15T01:57:09.587Z,9.07
2017-10-15T01:59:38.865Z,9.60
2017-10-15T02:02:06.966Z,9.90
2017-10-15T02:04:35.114Z,9.83
2017-10-15T02:07:04.591Z,9.50
2017-10-15T02:09:33.494Z,8.80
2017-10-15T02:12:02.472Z,9.67
2017-10-15T02:14:31.379Z,9.30
2017-10-15T02:17:01.382Z,9.30
2017-10-15T02:19:30.301Z,9.30
2017-10-15T02:21:58.444Z,9.50
2017-10-15T02:24:27.855Z,9.40
2017-10-15T02:26:56.786Z,9.17
2017-10-15T02:29:24.936Z,8.43
2017-10-15T02:31:53.900Z,8.90
2017-10-15T02:34:22.035Z,10.60
2017-10-15T02:36:50.153Z,10.27
2017-10-15T02:39:19.873Z,8.50
2017-10-15T02:41:48.750Z,9.70
2017-10-15T02:44:18.127Z,10.30
2017-10-15T02:46:46.770Z,9.60
2017-10-15T02:49:15.890Z,8.87
2017-10-15T02:51:43.992Z,9.77
2017-10-15T02:54:12.893Z,9.97
2017-10-15T02:56:41.018Z,10.13
2017-10-15T02:59:09.162Z,9.50
2017-10-15T03:01:37.312Z,11.37
2017-10-15T03:04:07.504Z,10.47
2017-10-15T03:06:36.350Z,10.67
2017-10-15T03:09:04.937Z,10.60
2017-10-15T03:11:34.092Z,9.83
2017-10-15T03:14:02.261Z,10.43
2017-10-15T03:16:30.389Z,10.23
2017-10-15T03:18:58.534Z,11.27
2017-10-15T03:21:27.839Z,11.33
2017-10-15T03:23:58.841Z,10.70
2017-10-15T03:26:26.976Z,12.43
2017-10-15T03:28:55.127Z,10.80
2017-10-15T03:31:24.056Z,10.53
2017-10-15T03:33:52.190Z,11.50
2017-10-15T03:36:21.929Z,11.60
2017-10-15T03:38:50.039Z,9.70
2017-10-15T03:41:18.208Z,10.50
2017-10-15T03:43:46.369Z,10.37
2017-10-15T03:46:15.304Z,10.07
2017-10-15T03:48:44.211Z,10.23
2017-10-15T03:51:14.691Z,10.60
2017-10-15T03:53:42.814Z,11.80
2017-10-15T03:56:11.404Z,10.70
2017-10-15T03:58:39.894Z,9.00
2017-10-15T04:01:08.042Z,9.90
2017-10-15T04:03:36.957Z,10.03
2017-10-15T04:06:05.095Z,10.23
2017-10-15T04:08:33.247Z,11.07
2017-10-15T04:11:01.361Z,11.20
2017-10-15T04:13:29.500Z,11.63
2017-10-15T04:15:58.104Z,10.97
2017-10-15T04:18:27.018Z,11.20
2017-10-15T04:20:56.912Z,12.27
2017-10-15T04:23:26.107Z,11.37
2017-10-15T04:25:54.989Z,11.63
2017-10-15T04:28:24.327Z,11.63
2017-10-15T04:30:52.488Z,10.70
2017-10-15T04:33:20.806Z,11.07
2017-10-15T04:35:48.934Z,11.37
2017-10-15T04:38:17.841Z,10.60
2017-10-15T04:40:46.368Z,10.40
2017-10-15T04:43:15.011Z,9.47
2017-10-15T04:45:43.127Z,10.70
2017-10-15T04:48:11.278Z,10.10
2017-10-15T04:50:39.413Z,10.30
2017-10-15T04:53:08.363Z,10.13
2017-10-15T04:55:37.592Z,11.43
2017-10-15T04:58:06.492Z,11.30
2017-10-15T05:00:36.192Z,9.40
2017-10-15T05:03:04.328Z,10.33
2017-10-15T05:05:34.162Z,11.20
2017-10-15T05:08:04.125Z,9.53
2017-10-15T05:10:32.848Z,9.63
2017-10-15T05:13:03.410Z,10.20
2017-10-15T05:15:32.301Z,10.10
2017-10-15T05:18:01.191Z,9.00
2017-10-15T05:20:31.275Z,9.60
2017-10-15T05:22:59.382Z,9.33
2017-10-15T05:25:28.292Z,9.50
2017-10-15T05:27:56.430Z,9.17
2017-10-15T05:30:24.576Z,8.30
2017-10-15T05:32:53.508Z,10.17
2017-10-15T05:35:21.655Z,10.50
2017-10-15T05:37:49.782Z,11.80
2017-10-15T05:40:18.332Z,12.30
2017-10-15T05:42:46.935Z,10.80
2017-10-15T05:45:15.885Z,12.23
2017-10-15T05:47:44.005Z,11.80
2017-10-15T05:50:12.915Z,13.43
2017-10-15T05:52:41.037Z,13.70
2017-10-15T05:55:09.982Z,14.47
2017-10-15T05:57:38.957Z,11.47
2017-10-15T06:00:07.134Z,13.20
2017-10-15T06:02:35.244Z,12.43
2017-10-15T06:05:03.883Z,11.87
2017-10-15T06:07:32.850Z,12.10
2017-10-15T06:10:01.001Z,9.63
2017-10-15T06:12:29.112Z,11.27
2017-10-15T06:14:57.717Z,10.93
2017-10-15T06:17:25.832Z,9.17
2017-10-15T06:19:53.968Z,9.33
2017-10-15T06:22:22.116Z,10.00
2017-10-15T06:24:51.011Z,7.17
2017-10-15T06:27:19.911Z,9.07
2017-10-15T06:29:48.802Z,12.67
2017-10-15T06:32:17.324Z,10.80
2017-10-15T06:34:46.277Z,11.63
2017-10-15T06:37:15.189Z,13.90
2017-10-15T06:39:43.307Z,7.27
2017-10-15T06:42:11.935Z,7.80
2017-10-15T06:44:40.039Z,8.07
2017-10-15T06:47:08.170Z,6.50
2017-10-15T06:49:37.489Z,6.60
2017-10-15T06:52:05.704Z,7.27
2017-10-15T06:54:33.831Z,7.40
2017-10-15T06:57:01.977Z,6.40
2017-10-15T06:59:30.153Z,6.60
2017-10-15T07:01:59.158Z,5.50
2017-10-15T07:04:27.343Z,5.90
2017-10-15T07:06:55.477Z,5.97
2017-10-15T07:09:23.979Z,5.30
2017-10-15T07:11:52.136Z,5.77
2017-10-15T07:14:20.424Z,5.97
2017-10-15T07:16:49.329Z,5.70
2017-10-15T07:19:18.191Z,5.57
2017-10-15T07:21:46.335Z,5.60
2017-10-15T07:24:14.437Z,5.23
2017-10-15T07:26:42.630Z,5.67
2017-10-15T07:29:11.497Z,5.13
2017-10-15T07:31:39.662Z,5.37
2017-10-15T07:34:07.812Z,4.83
2017-10-15T07:36:35.924Z,5.07
2017-10-15T07:39:04.079Z,5.60
2017-10-15T07:41:32.219Z,4.90
2017-10-15T07:44:00.349Z,5.30
2017-10-15T07:46:28.534Z,4.60
2017-10-15T07:48:57.520Z,4.97
2017-10-15T07:51:25.729Z,5.10
2017-10-15T07:53:53.887Z,5.80
2017-10-15T07:56:22.752Z,5.33
2017-10-15T07:58:52.052Z,5.10
2017-10-15T08:01:20.832Z,5.93
2017-10-15T08:03:49.029Z,5.83
2017-10-15T08:06:17.933Z,6.20
2017-10-15T08:08:46.815Z,5.90
2017-10-15T08:11:15.705Z,6.43
2017-10-15T08:13:44.597Z,7.00
2017-10-15T08:16:12.754Z,6.73
2017-10-15T08:18:42.149Z,6.80
2017-10-15T08:21:10.936Z,6.77
2017-10-15T08:23:39.080Z,6.50
2017-10-15T08:26:07.190Z,7.40
2017-10-15T08:28:35.343Z,6.53
2017-10-15T08:31:03.467Z,7.10
2017-10-15T08:33:32.015Z,5.93
2017-10-15T08:36:00.121Z,6.80
2017-10-15T08:38:32.145Z,7.40
2017-10-15T08:41:00.265Z,6.90
2017-10-15T08:43:28.393Z,6.80
2017-10-15T08:45:56.618Z,7.30
2017-10-15T08:48:25.968Z,6.50
2017-10-15T08:50:55.473Z,7.03
2017-10-15T08:53:23.695Z,6.80
2017-10-15T08:55:51.826Z,6.13
2017-10-15T08:58:19.934Z,6.50
2017-10-15T09:00:48.084Z,7.07
2017-10-15T09:03:16.999Z,6.30
2017-10-15T09:05:45.161Z,6.60
2017-10-15T09:08:14.068Z,6.50
2017-10-15T09:10:42.227Z,6.80
2017-10-15T09:13:11.112Z,6.90
2017-10-15T09:15:40.384Z,6.53
2017-10-15T09:18:08.504Z,6.53
2017-10-15T09:20:36.650Z,6.80
2017-10-15T09:23:04.766Z,6.87
2017-10-15T09:25:32.902Z,5.90
2017-10-15T09:28:01.779Z,6.80
2017-10-15T09:30:29.911Z,7.03
2017-10-15T09:32:59.372Z,7.30
2017-10-15T09:35:28.282Z,7.30
2017-10-15T09:37:56.869Z,5.97
2017-10-15T09:40:25.006Z,6.50
2017-10-15T09:42:53.116Z,7.47
2017-10-15T09:45:22.004Z,5.20
2017-10-15T09:47:51.187Z,6.00
2017-10-15T09:50:20.091Z,5.57
2017-10-15T09:52:48.979Z,5.77
2017-10-15T09:55:17.938Z,5.40
2017-10-15T09:57:46.054Z,5.40
2017-10-15T10:00:14.209Z,5.07
2017-10-15T10:02:43.147Z,5.13
2017-10-15T10:05:11.252Z,5.17
2017-10-15T10:07:39.389Z,5.10
2017-10-15T10:10:07.492Z,5.07
2017-10-15T10:12:37.245Z,4.97
2017-10-15T10:15:05.395Z,4.90
2017-10-15T10:17:34.305Z,5.70
2017-10-15T10:20:02.413Z,5.10
2017-10-15T10:22:30.559Z,5.50
2017-10-15T10:24:58.672Z,5.37
2017-10-15T10:27:26.810Z,6.20
2017-10-15T10:29:55.371Z,5.40
2017-10-15T10:32:24.274Z,5.57
2017-10-15T10:34:52.423Z,5.30
2017-10-15T10:37:20.612Z,5.33
2017-10-15T10:39:50.616Z,6.30
2017-10-15T10:42:18.750Z,6.10
2017-10-15T10:44:46.865Z,6.27
2017-10-15T10:47:15.756Z,6.20
2017-10-15T10:49:44.624Z,5.50
2017-10-15T10:52:12.764Z,6.10
2017-10-15T10:54:40.877Z,5.57
2017-10-15T10:57:08.999Z,4.57
2017-10-15T10:59:37.868Z,6.90
2017-10-15T11:02:06.770Z,5.00
2017-10-15T11:04:34.894Z,5.23
2017-10-15T11:07:03.051Z,5.10
2017-10-15T11:09:32.394Z,5.53
2017-10-15T11:12:01.265Z,4.60
2017-10-15T11:14:29.406Z,5.13
2017-10-15T11:16:57.499Z,5.90
2017-10-15T11:19:25.627Z,5.23
2017-10-15T11:21:54.787Z,5.43
2017-10-15T11:24:22.932Z,5.30
2017-10-15T11:26:51.047Z,4.93
2017-10-15T11:29:19.937Z,4.90
2017-10-15T11:31:48.806Z,4.50
2017-10-15T11:34:16.940Z,4.57
2017-10-15T11:36:45.053Z,4.87
2017-10-15T11:39:13.199Z,4.23
2017-10-15T11:41:41.313Z,4.53
2017-10-15T11:44:10.728Z,4.43
2017-10-15T11:46:39.610Z,4.67
2017-10-15T11:49:07.759Z,4.63
2017-10-15T11:51:35.877Z,4.20
2017-10-15T11:54:04.011Z,4.70
2017-10-15T11:56:32.122Z,4.57
2017-10-15T11:59:00.260Z,4.40
2017-10-15T12:01:28.383Z,4.73
2017-10-15T12:03:56.519Z,4.97
2017-10-15T12:06:24.617Z,4.60
2017-10-15T12:08:52.754Z,4.70
2017-10-15T12:11:20.856Z,4.90
2017-10-15T12:13:48.984Z,4.80
2017-10-15T12:16:17.867Z,4.60
2017-10-15T12:18:45.987Z,4.00
2017-10-15T12:21:14.879Z,4.90
2017-10-15T12:23:43.770Z,4.67
2017-10-15T12:26:12.702Z,4.47
2017-10-15T12:28:40.804Z,4.33
2017-10-15T12:31:08.929Z,4.40
2017-10-15T12:33:37.496Z,4.90
2017-10-15T12:36:05.619Z,4.20
2017-10-15T12:38:33.731Z,5.00
2017-10-15T12:41:03.128Z,4.67
2017-10-15T12:43:32.014Z,4.50
2017-10-15T12:46:00.907Z,4.43
2017-10-15T12:48:29.790Z,4.90
2017-10-15T12:50:57.926Z,4.30
2017-10-15T12:53:26.145Z,4.80
2017-10-15T12:55:55.021Z,4.27
2017-10-15T12:58:23.135Z,4.60
2017-10-15T13:00:51.714Z,4.60
2017-10-15T13:03:19.851Z,4.77
2017-10-15T13:05:47.994Z,4.57
2017-10-15T13:08:16.109Z,4.70
2017-10-15T13:10:44.245Z,4.37
2017-10-15T13:13:12.861Z,4.17
2017-10-15T13:15:41.506Z,5.10
2017-10-15T13:18:09.613Z,4.37
2017-10-15T13:20:38.745Z,5.00
2017-10-15T13:23:06.889Z,4.37
2017-10-15T13:25:34.995Z,4.57
2017-10-15T13:28:03.115Z,4.60
2017-10-15T13:30:31.226Z,4.80
2017-10-15T13:33:00.145Z,4.30
2017-10-15T13:35:28.269Z,4.80
2017-10-15T13:37:56.424Z,4.77
2017-10-15T13:40:24.528Z,5.00
2017-10-15T13:42:53.417Z,4.17
2017-10-15T13:45:22.291Z,4.93
2017-10-15T13:47:50.432Z,4.90
2017-10-15T13:50:19.176Z,4.20
2017-10-15T13:52:48.072Z,4.20
2017-10-15T13:55:16.956Z,4.40
2017-10-15T13:57:45.854Z,4.63
2017-10-15T14:00:14.732Z,4.67
2017-10-15T14:02:43.613Z,4.90
2017-10-15T14:05:11.722Z,4.30
2017-10-15T14:07:40.744Z,4.20
2017-10-15T14:10:08.848Z,4.33
2017-10-15T14:12:38.063Z,5.00
2017-10-15T14:15:06.938Z,4.63
2017-10-15T14:17:35.090Z,4.20
2017-10-15T14:20:03.196Z,4.57
2017-10-15T14:22:32.078Z,5.43
2017-10-15T14:25:00.217Z,4.90
2017-10-15T14:27:28.344Z,4.90
2017-10-15T14:29:57.246Z,4.80
2017-10-15T14:32:26.833Z,5.20
2017-10-15T14:34:55.721Z,4.70
2017-10-15T14:37:24.606Z,4.40
2017-10-15T14:39:52.729Z,5.03
2017-10-15T14:42:20.838Z,5.40
2017-10-15T14:44:50.601Z,5.20
2017-10-15T14:47:18.718Z,4.60
2017-10-15T14:49:46.856Z,5.03
2017-10-15T14:52:15.385Z,5.30
2017-10-15T14:54:43.557Z,5.20
2017-10-15T14:57:11.656Z,5.67
2017-10-15T14:59:40.559Z,5.30
2017-10-15T15:02:09.552Z,5.33
2017-10-15T15:04:37.685Z,5.70
2017-10-15T15:07:05.788Z,5.27
2017-10-15T15:09:35.664Z,5.67
2017-10-15T15:12:03.783Z,5.47
2017-10-15T15:14:31.924Z,4.90
2017-10-15T15:17:00.026Z,6.00
2017-10-15T15:19:28.176Z,5.23
2017-10-15T15:21:56.294Z,6.00
2017-10-15T15:24:24.410Z,6.07
2017-10-15T15:26:52.547Z,5.30
2017-10-15T15:29:20.661Z,5.57
2017-10-15T15:31:48.796Z,6.03
2017-10-15T15:34:16.915Z,6.33
2017-10-15T15:36:45.815Z,5.90
2017-10-15T15:39:14.683Z,7.10
2017-10-15T15:41:42.815Z,6.10
2017-10-15T15:44:10.919Z,6.17
2017-10-15T15:46:39.046Z,5.40
2017-10-15T15:49:07.181Z,5.87
2017-10-15T15:51:35.324Z,6.30
2017-10-15T15:54:04.075Z,6.17
2017-10-15T15:56:32.211Z,6.53
2017-10-15T15:59:00.329Z,6.40
2017-10-15T16:01:28.472Z,6.80
2017-10-15T16:03:57.735Z,6.60
2017-10-15T16:06:25.873Z,6.03
2017-10-15T16:08:54.039Z,6.03
2017-10-15T16:11:22.171Z,6.20
2017-10-15T16:13:51.446Z,6.73
2017-10-15T16:16:19.595Z,6.33
2017-10-15T16:18:47.732Z,6.30
2017-10-15T16:21:15.867Z,6.30
2017-10-15T16:23:43.985Z,5.63
2017-10-15T16:26:14.141Z,5.20
2017-10-15T16:28:42.273Z,5.87
2017-10-15T16:31:11.185Z,6.70
2017-10-15T16:33:41.563Z,7.20
2017-10-15T16:36:09.663Z,6.30
2017-10-15T16:38:38.564Z,6.53
2017-10-15T16:41:07.446Z,6.60
2017-10-15T16:43:37.669Z,7.23
2017-10-15T16:46:06.554Z,6.90
2017-10-15T16:48:35.887Z,6.80
2017-10-15T16:51:04.553Z,6.70
2017-10-15T16:53:36.816Z,6.90
2017-10-15T16:56:05.700Z,7.53
2017-10-15T16:58:35.108Z,7.13
2017-10-15T17:01:05.442Z,7.30
2017-10-15T17:03:36.700Z,6.40
2017-10-15T17:06:04.803Z,6.30
2017-10-15T17:08:32.943Z,6.30
2017-10-15T17:11:01.526Z,6.43
2017-10-15T17:13:30.312Z,5.43
2017-10-15T17:16:00.828Z,6.70
2017-10-15T17:18:30.796Z,6.33
2017-10-15T17:20:59.345Z,5.87
2017-10-15T17:23:28.814Z,6.03
2017-10-15T17:25:56.920Z,5.50
2017-10-15T17:28:25.588Z,9.90
2017-10-15T17:30:54.915Z,13.27
2017-10-15T17:33:23.100Z,35.10
2017-10-15T17:35:51.226Z,7.43
2017-10-15T17:38:20.753Z,15.90
2017-10-15T17:40:50.862Z,5.53
2017-10-15T17:43:19.769Z,8.73
2017-10-15T17:45:49.226Z,12.10
2017-10-15T17:48:17.338Z,5.40
2017-10-15T17:50:48.638Z,5.37
2017-10-15T17:53:17.335Z,5.80
2017-10-15T17:55:46.278Z,5.83
2017-10-15T17:58:18.791Z,5.60
2017-10-15T18:00:48.439Z,5.90
2017-10-15T18:03:17.365Z,6.77
2017-10-15T18:05:46.335Z,6.57
2017-10-15T18:08:17.512Z,6.77
2017-10-15T18:10:45.661Z,7.50
2017-10-15T18:13:13.770Z,6.73
2017-10-15T18:15:41.934Z,6.70
2017-10-15T18:18:10.044Z,7.07
2017-10-15T18:20:38.176Z,4.97
2017-10-15T18:23:06.304Z,6.83
2017-10-15T18:25:35.231Z,8.17
2017-10-15T18:28:03.961Z,6.93
2017-10-15T18:30:32.122Z,5.40
2017-10-15T18:33:02.094Z,5.97
2017-10-15T18:35:30.973Z,6.97
2017-10-15T18:38:00.693Z,6.87
2017-10-15T18:40:28.817Z,6.93
2017-10-15T18:42:57.532Z,6.57
2017-10-15T18:45:26.422Z,43.30
2017-10-15T18:47:54.565Z,21.40
2017-10-15T18:50:22.701Z,9.37
2017-10-15T18:52:50.842Z,7.30
2017-10-15T18:55:19.720Z,7.10
2017-10-15T18:57:47.869Z,8.47
2017-10-15T19:00:15.972Z,7.77
2017-10-15T19:02:44.134Z,9.57
2017-10-15T19:05:12.253Z,8.00
2017-10-15T19:07:40.881Z,10.20
2017-10-15T19:10:11.048Z,26.20
2017-10-15T19:12:39.957Z,21.57
2017-10-15T19:15:08.073Z,11.63
2017-10-15T19:17:36.220Z,8.30
2017-10-15T19:20:04.349Z,8.10
2017-10-15T19:22:33.229Z,8.70
2017-10-15T19:25:02.490Z,7.80
2017-10-15T19:27:33.170Z,7.93
2017-10-15T19:30:01.764Z,7.90
2017-10-15T19:32:30.840Z,8.03
2017-10-15T19:34:58.982Z,8.00
2017-10-15T19:37:27.094Z,9.00
2017-10-15T19:39:57.688Z,8.10
2017-10-15T19:42:26.092Z,8.10
2017-10-15T19:44:54.224Z,8.60
2017-10-15T19:47:22.537Z,8.47
2017-10-15T19:49:50.670Z,9.03
2017-10-15T19:52:18.846Z,9.60
2017-10-15T19:54:46.991Z,9.27
2017-10-15T19:57:15.890Z,9.97
2017-10-15T19:59:44.070Z,8.80
2017-10-15T20:02:12.258Z,8.90
2017-10-15T20:04:40.457Z,7.93
2017-10-15T20:07:08.586Z,8.90
2017-10-15T20:09:36.725Z,8.73
2017-10-15T20:12:04.839Z,10.67
2017-10-15T20:14:32.972Z,9.63
2017-10-15T20:17:01.137Z,9.60
2017-10-15T20:19:29.256Z,10.10
2017-10-15T20:21:57.407Z,9.77
2017-10-15T20:24:26.327Z,9.13
2017-10-15T20:26:54.461Z,9.30
2017-10-15T20:29:22.602Z,9.43
2017-10-15T20:31:51.530Z,9.40
2017-10-15T20:34:19.650Z,9.27
2017-10-15T20:36:49.126Z,9.17
2017-10-15T20:39:17.708Z,9.17
2017-10-15T20:41:45.846Z,8.23
2017-10-15T20:44:13.961Z,7.90
2017-10-15T20:46:42.122Z,8.30
2017-10-15T20:49:11.002Z,9.30
2017-10-15T20:51:40.724Z,8.40
2017-10-15T20:54:09.610Z,8.03
2017-10-15T20:56:38.537Z,10.03
2017-10-15T20:59:08.500Z,8.90
2017-10-15T21:01:36.697Z,8.50
2017-10-15T21:04:05.560Z,9.13
2017-10-15T21:06:33.726Z,9.60
2017-10-15T21:09:01.855Z,9.33
2017-10-15T21:11:30.009Z,9.27
2017-10-15T21:13:58.906Z,8.87
2017-10-15T21:16:27.513Z,9.73
2017-10-15T21:18:58.397Z,8.57
2017-10-15T21:21:26.496Z,9.27
2017-10-15T21:23:54.664Z,9.50
2017-10-15T21:26:23.935Z,8.40
2017-10-15T21:28:52.069Z,8.77
2017-10-15T21:31:20.209Z,9.83
2017-10-15T21:33:49.170Z,8.83
2017-10-15T21:36:18.146Z,9.37
2017-10-15T21:38:46.345Z,10.00
2017-10-15T21:41:14.451Z,9.03
2017-10-15T21:43:42.580Z,9.27
2017-10-15T21:46:18.042Z,9.87
2017-10-15T21:48:46.186Z,8.47
2017-10-15T21:51:14.315Z,9.80
2017-10-15T21:53:42.444Z,9.60
2017-10-15T21:56:10.603Z,9.00
2017-10-15T21:58:42.044Z,9.20
2017-10-15T22:01:10.180Z,8.70
2017-10-15T22:03:39.493Z,9.90
2017-10-15T22:06:07.629Z,8.70
2017-10-15T22:08:35.875Z,10.23
2017-10-15T22:11:04.506Z,10.07
2017-10-15T22:13:34.229Z,9.90
2017-10-15T22:16:04.629Z,10.27
2017-10-15T22:18:38.448Z,9.70
2017-10-15T22:21:12.291Z,9.60
2017-10-15T22:23:40.435Z,10.20
2017-10-15T22:26:08.593Z,10.47
2017-10-15T22:28:38.033Z,9.17
2017-10-15T22:31:07.498Z,10.30
2017-10-15T22:33:35.731Z,9.20
2017-10-15T22:36:03.860Z,9.60
2017-10-15T22:38:32.836Z,9.10
2017-10-15T22:41:00.984Z,10.17
2017-10-15T22:43:29.097Z,8.43
2017-10-15T22:45:57.277Z,8.83
2017-10-15T22:48:26.179Z,8.40
2017-10-15T22:50:55.082Z,9.50
2017-10-15T22:53:23.191Z,9.10
2017-10-15T22:55:51.350Z,9.50
2017-10-15T22:58:19.489Z,9.90
2017-10-15T23:00:48.383Z,10.10
2017-10-15T23:03:16.517Z,9.70
2017-10-15T23:05:45.928Z,8.80
2017-10-15T23:08:14.054Z,8.53
2017-10-15T23:10:42.203Z,9.40
2017-10-15T23:13:11.086Z,10.07
2017-10-15T23:15:40.043Z,9.30
2017-10-15T23:18:08.170Z,9.77
2017-10-15T23:20:36.311Z,9.53
2017-10-15T23:23:05.213Z,9.57
2017-10-15T23:25:34.918Z,9.40
2017-10-15T23:28:03.839Z,9.67
2017-10-15T23:30:32.370Z,10.07
2017-10-15T23:33:00.500Z,9.47
2017-10-15T23:35:29.531Z,9.40
2017-10-15T23:37:57.674Z,9.67
2017-10-15T23:40:27.464Z,9.10
2017-10-15T23:42:55.630Z,9.97
2017-10-15T23:45:23.791Z,9.30
2017-10-15T23:47:52.717Z,8.77
2017-10-15T23:50:20.842Z,8.80
2017-10-15T23:52:49.002Z,9.00
2017-10-15T23:55:17.921Z,9.13
2017-10-15T23:57:46.050Z,8.80
